createdAt,value
2022-08-08T00:00:55.782Z,68.59
2022-08-08T00:01:06.659Z,69.40
2022-08-08T00:02:29.896Z,69.71
2022-08-08T00:02:53.169Z,70.52
2022-08-08T00:03:53.366Z,70.11
2022-08-08T00:04:55.742Z,70.21
2022-08-08T00:06:02.736Z,70.32
2022-08-08T00:06:53.154Z,70.01
2022-08-08T00:07:53.150Z,70.32
2022-08-08T00:08:53.151Z,70.55
2022-08-08T00:09:53.142Z,70.25
2022-08-08T00:10:53.137Z,70.15
2022-08-08T00:12:07.214Z,71.33
2022-08-08T00:12:56.497Z,71.26
2022-08-08T00:14:17.462Z,71.36
2022-08-08T00:14:59.818Z,71.36
2022-08-08T00:15:56.674Z,71.77
2022-08-08T00:16:53.109Z,71.57
2022-08-08T00:18:03.615Z,71.47
2022-08-08T00:18:53.099Z,71.88
2022-08-08T00:19:53.101Z,72.08
2022-08-08T00:20:53.088Z,70.96
2022-08-08T00:21:53.131Z,71.57
2022-08-08T00:22:53.083Z,70.25
2022-08-08T00:23:53.079Z,70.55
2022-08-08T00:24:53.074Z,70.25
2022-08-08T00:25:53.074Z,71.47
2022-08-08T00:26:53.066Z,71.80
2022-08-08T00:27:53.064Z,71.50
2022-08-08T00:28:53.061Z,71.88
2022-08-08T00:29:53.055Z,71.47
2022-08-08T00:31:00.203Z,71.57
2022-08-08T00:32:21.135Z,71.30
2022-08-08T00:32:53.039Z,71.70
2022-08-08T00:34:18.357Z,71.30
2022-08-08T00:34:53.034Z,71.60
2022-08-08T00:35:53.026Z,71.50
2022-08-08T00:36:54.912Z,72.41
2022-08-08T00:38:01.917Z,72.52
2022-08-08T00:38:55.923Z,72.62
2022-08-08T00:41:10.572Z,72.65
2022-08-08T00:41:10.699Z,71.70
2022-08-08T00:42:08.364Z,72.82
2022-08-08T00:42:53.015Z,72.14
2022-08-08T00:43:55.905Z,72.21
2022-08-08T00:44:52.987Z,72.45
2022-08-08T00:45:52.983Z,72.55
2022-08-08T00:46:57.449Z,72.75
2022-08-08T00:48:05.464Z,72.96
2022-08-08T00:49:00.823Z,73.16
2022-08-08T00:49:58.957Z,72.96
2022-08-08T00:50:53.356Z,73.26
2022-08-08T00:51:52.953Z,73.26
2022-08-08T00:52:52.950Z,73.16
2022-08-08T00:54:13.685Z,73.06
2022-08-08T00:54:52.941Z,73.26
2022-08-08T00:55:54.581Z,73.26
2022-08-08T00:56:52.926Z,73.46
2022-08-08T00:57:58.173Z,73.46
2022-08-08T00:58:54.369Z,73.70
2022-08-08T00:59:52.920Z,73.46
2022-08-08T01:00:52.953Z,73.87
2022-08-08T01:01:52.948Z,73.70
2022-08-08T01:03:57.337Z,73.50
2022-08-08T01:04:01.662Z,73.39
2022-08-08T01:04:52.895Z,73.30
2022-08-08T01:05:59.590Z,73.67
2022-08-08T01:06:54.423Z,73.87
2022-08-08T01:07:55.245Z,74.11
2022-08-08T01:08:52.887Z,74.21
2022-08-08T01:09:52.872Z,73.91
2022-08-08T01:10:52.870Z,73.91
2022-08-08T01:11:52.862Z,74.72
2022-08-08T01:12:52.858Z,74.31
2022-08-08T01:13:58.196Z,74.52
2022-08-08T01:14:54.447Z,74.41
2022-08-08T01:15:54.554Z,74.62
2022-08-08T01:16:52.837Z,74.35
2022-08-08T01:17:54.099Z,74.65
2022-08-08T01:18:54.809Z,74.35
2022-08-08T01:20:03.221Z,75.26
2022-08-08T01:20:52.821Z,75.16
2022-08-08T01:22:10.276Z,74.85
2022-08-08T01:22:52.809Z,74.96
2022-08-08T01:24:06.130Z,74.85
2022-08-08T01:24:53.805Z,75.26
2022-08-08T01:25:54.195Z,75.26
2022-08-08T01:26:52.790Z,74.85
2022-08-08T01:27:52.784Z,75.16
2022-08-08T01:28:52.780Z,75.16
2022-08-08T01:29:59.527Z,75.06
2022-08-08T01:30:53.415Z,75.02
2022-08-08T01:32:14.740Z,75.16
2022-08-08T01:32:52.760Z,74.85
2022-08-08T01:34:00.420Z,75.06
2022-08-08T01:34:52.760Z,74.96
2022-08-08T01:35:52.747Z,75.26
2022-08-08T01:36:52.743Z,75.26
2022-08-08T01:37:57.486Z,75.60
2022-08-08T01:38:53.049Z,76.11
2022-08-08T01:39:53.611Z,76.42
2022-08-08T01:40:52.718Z,76.42
2022-08-08T01:41:52.720Z,76.42
2022-08-08T01:42:52.712Z,76.72
2022-08-08T01:43:52.707Z,76.92
2022-08-08T01:44:53.362Z,77.06
2022-08-08T01:45:56.054Z,77.33
2022-08-08T01:46:52.826Z,76.96
2022-08-08T01:48:23.343Z,76.82
2022-08-08T01:48:52.682Z,76.82
2022-08-08T01:49:57.089Z,76.52
2022-08-08T01:50:52.672Z,76.72
2022-08-08T01:52:41.212Z,76.42
2022-08-08T01:55:15.006Z,76.82
2022-08-08T01:55:27.112Z,76.96
2022-08-08T01:55:45.512Z,76.96
2022-08-08T01:56:29.239Z,76.82
2022-08-08T01:56:52.642Z,77.47
2022-08-08T01:58:12.287Z,77.57
2022-08-08T01:58:52.631Z,78.19
2022-08-08T02:00:02.881Z,78.39
2022-08-08T02:00:57.492Z,78.19
2022-08-08T02:01:59.947Z,78.19
2022-08-08T02:02:52.614Z,77.98
2022-08-08T02:03:57.347Z,78.19
2022-08-08T02:04:52.608Z,78.19
2022-08-08T02:05:56.645Z,78.39
2022-08-08T02:06:52.596Z,78.39
2022-08-08T02:07:52.582Z,78.59
2022-08-08T02:08:52.585Z,78.89
2022-08-08T02:10:04.054Z,78.59
2022-08-08T02:10:52.574Z,78.39
2022-08-08T02:12:00.118Z,78.73
2022-08-08T02:12:52.563Z,78.80
2022-08-08T02:13:55.388Z,78.53
2022-08-08T02:14:58.704Z,78.69
2022-08-08T02:15:52.547Z,78.69
2022-08-08T02:16:52.541Z,78.93
2022-08-08T02:17:52.536Z,78.89
2022-08-08T02:18:58.912Z,78.83
2022-08-08T02:20:07.476Z,78.93
2022-08-08T02:21:00.627Z,78.69
2022-08-08T02:21:52.524Z,78.63
2022-08-08T02:22:55.182Z,78.49
2022-08-08T02:23:54.649Z,78.63
2022-08-08T02:24:52.533Z,78.53
2022-08-08T02:25:52.502Z,78.63
2022-08-08T02:26:52.488Z,78.63
2022-08-08T02:27:52.487Z,78.49
2022-08-08T02:28:52.488Z,78.49
2022-08-08T02:29:52.868Z,79.24
2022-08-08T02:30:58.301Z,79.03
2022-08-08T02:32:01.156Z,79.03
2022-08-08T02:32:52.458Z,79.20
2022-08-08T02:34:08.565Z,79.24
2022-08-08T02:35:08.164Z,79.03
2022-08-08T02:36:04.125Z,79.14
2022-08-08T02:36:54.665Z,79.64
2022-08-08T02:37:56.677Z,79.64
2022-08-08T02:38:52.422Z,79.64
2022-08-08T02:39:59.715Z,79.75
2022-08-08T02:40:52.559Z,79.34
2022-08-08T02:41:58.706Z,79.44
2022-08-08T02:43:00.699Z,79.14
2022-08-08T02:44:38.438Z,79.34
2022-08-08T02:44:57.335Z,79.75
2022-08-08T02:45:56.824Z,79.54
2022-08-08T02:46:52.384Z,79.54
2022-08-08T02:47:55.187Z,79.85
2022-08-08T02:48:52.370Z,79.95
2022-08-08T02:49:52.362Z,79.54
2022-08-08T02:50:52.961Z,80.16
2022-08-08T02:51:56.461Z,80.05
2022-08-08T02:52:52.562Z,80.26
2022-08-08T02:53:52.342Z,79.95
2022-08-08T02:54:52.335Z,80.16
2022-08-08T02:55:59.809Z,79.99
2022-08-08T02:56:52.324Z,80.09
2022-08-08T02:57:52.364Z,79.79
2022-08-08T02:58:52.323Z,79.99
2022-08-08T02:59:57.610Z,80.19
2022-08-08T03:00:52.374Z,80.16
2022-08-08T03:01:52.379Z,80.09
2022-08-08T03:02:52.296Z,79.99
2022-08-08T03:05:04.803Z,79.68
2022-08-08T03:05:05.457Z,79.58
2022-08-08T03:05:53.399Z,79.95
2022-08-08T03:06:52.271Z,79.99
2022-08-08T03:07:58.767Z,80.29
2022-08-08T03:08:52.386Z,80.40
2022-08-08T03:09:52.253Z,80.70
2022-08-08T03:10:54.027Z,80.60
2022-08-08T03:12:01.886Z,80.91
2022-08-08T03:13:01.391Z,80.80
2022-08-08T03:15:56.572Z,80.74
2022-08-08T03:15:56.876Z,81.25
2022-08-08T03:16:04.035Z,81.66
2022-08-08T03:16:52.219Z,81.35
2022-08-08T03:18:04.619Z,81.86
2022-08-08T03:18:52.372Z,81.15
2022-08-08T03:19:52.194Z,81.56
2022-08-08T03:20:52.347Z,81.86
2022-08-08T03:21:58.940Z,81.76
2022-08-08T03:22:56.985Z,82.07
2022-08-08T03:23:59.385Z,82.21
2022-08-08T03:24:52.172Z,82.00
2022-08-08T03:25:52.163Z,82.31
2022-08-08T03:26:52.156Z,82.27
2022-08-08T03:27:56.495Z,82.31
2022-08-08T03:28:52.145Z,81.96
2022-08-08T03:29:56.354Z,82.00
2022-08-08T03:31:22.539Z,82.82
2022-08-08T03:32:05.751Z,83.09
2022-08-08T03:32:57.729Z,82.10
2022-08-08T03:33:58.906Z,82.21
2022-08-08T03:34:52.113Z,82.31
2022-08-08T03:35:52.102Z,82.21
2022-08-08T03:36:52.102Z,82.51
2022-08-08T03:38:53.688Z,82.82
2022-08-08T03:38:56.984Z,82.61
2022-08-08T03:40:00.611Z,82.21
2022-08-08T03:40:52.379Z,82.10
2022-08-08T03:42:27.393Z,82.00
2022-08-08T03:42:52.064Z,82.21
2022-08-08T03:43:52.062Z,82.21
2022-08-08T03:44:52.477Z,82.31
2022-08-08T03:46:06.173Z,82.21
2022-08-08T03:46:52.046Z,82.41
2022-08-08T03:47:54.117Z,81.96
2022-08-08T03:49:54.961Z,82.00
2022-08-08T03:49:59.502Z,81.90
2022-08-08T03:50:52.021Z,82.10
2022-08-08T03:51:52.016Z,82.41
2022-08-08T03:52:52.008Z,82.10
2022-08-08T03:53:52.004Z,82.10
2022-08-08T03:55:10.569Z,82.51
2022-08-08T03:55:57.670Z,82.82
2022-08-08T03:56:51.987Z,82.92
2022-08-08T03:58:33.349Z,82.61
2022-08-08T03:58:51.978Z,82.21
2022-08-08T04:00:02.767Z,82.10
2022-08-08T04:01:01.410Z,82.17
2022-08-08T04:02:13.217Z,82.07
2022-08-08T04:02:52.599Z,82.10
2022-08-08T04:03:58.748Z,82.51
2022-08-08T04:04:51.942Z,82.21
2022-08-08T04:05:51.937Z,81.96
2022-08-08T04:06:51.931Z,82.37
2022-08-08T04:07:51.926Z,82.82
2022-08-08T04:08:51.919Z,82.78
2022-08-08T04:10:00.598Z,82.61
2022-08-08T04:10:59.993Z,82.17
2022-08-08T04:12:00.464Z,82.92
2022-08-08T04:12:51.897Z,82.37
2022-08-08T04:14:03.339Z,82.78
2022-08-08T04:14:51.886Z,82.57
2022-08-08T04:16:03.645Z,82.27
2022-08-08T04:16:51.880Z,82.17
2022-08-08T04:17:59.278Z,82.27
2022-08-08T04:18:51.861Z,82.07
2022-08-08T04:19:52.038Z,81.76
2022-08-08T04:20:51.854Z,81.01
2022-08-08T04:21:51.845Z,81.11
2022-08-08T04:22:51.841Z,80.60
2022-08-08T04:24:11.747Z,80.60
2022-08-08T04:24:51.827Z,80.36
2022-08-08T04:25:51.825Z,80.36
2022-08-08T04:26:57.572Z,79.95
2022-08-08T04:28:35.600Z,80.26
2022-08-08T04:28:54.427Z,79.95
2022-08-08T04:30:01.041Z,80.11
2022-08-08T04:30:51.795Z,79.50
2022-08-08T04:31:58.611Z,79.85
2022-08-08T04:32:51.784Z,79.91
2022-08-08T04:33:51.778Z,79.61
2022-08-08T04:34:58.425Z,79.20
2022-08-08T04:35:51.808Z,79.27
2022-08-08T04:36:51.762Z,78.96
2022-08-08T04:37:51.762Z,78.55
2022-08-08T04:39:20.336Z,78.35
2022-08-08T04:40:06.337Z,78.35
2022-08-08T05:17:26.520Z,45.04
2022-08-08T05:18:27.649Z,45.52
2022-08-08T05:20:30.964Z,43.79
2022-08-08T05:21:30.960Z,43.96
2022-08-08T05:22:31.080Z,44.24
2022-08-08T05:23:30.947Z,43.64
2022-08-08T05:24:31.086Z,42.75
2022-08-08T05:25:41.544Z,42.93
2022-08-08T05:26:30.934Z,42.21
2022-08-08T05:27:33.160Z,42.91
2022-08-08T05:28:56.638Z,41.69
2022-08-08T05:29:30.927Z,40.90
2022-08-08T05:30:30.925Z,40.78
2022-08-08T05:32:03.420Z,40.78
2022-08-08T05:32:36.175Z,41.26
2022-08-08T05:33:43.997Z,40.66
2022-08-08T05:34:30.915Z,40.94
2022-08-08T05:35:30.913Z,39.25
2022-08-08T05:36:30.911Z,39.75
2022-08-08T05:37:39.181Z,38.54
2022-08-08T05:38:32.383Z,37.59
2022-08-08T05:39:35.113Z,39.81
2022-08-08T05:40:30.906Z,41.00
2022-08-08T05:41:30.900Z,38.92
2022-08-08T05:42:31.054Z,39.73
2022-08-08T05:44:02.129Z,40.11
2022-08-08T05:44:31.390Z,39.81
2022-08-08T05:45:43.235Z,40.86
2022-08-08T05:46:30.890Z,39.07
2022-08-08T05:47:52.541Z,37.57
2022-08-08T05:48:31.132Z,38.05
2022-08-08T05:49:31.176Z,38.28
2022-08-08T05:50:33.451Z,39.07
2022-08-08T05:51:47.943Z,39.67
2022-08-08T05:52:33.895Z,38.34
2022-08-08T05:54:24.452Z,38.42
2022-08-08T05:54:43.220Z,36.94
2022-08-08T05:55:30.888Z,34.97
2022-08-08T05:56:30.893Z,36.20
2022-08-08T05:58:04.037Z,36.51
2022-08-08T05:58:33.387Z,38.88
2022-08-08T06:00:01.114Z,36.99
2022-08-08T06:00:30.884Z,35.80
2022-08-08T06:01:52.565Z,35.60
2022-08-08T06:02:30.882Z,37.23
2022-08-08T06:03:30.920Z,37.81
2022-08-08T06:04:30.883Z,35.90
2022-08-08T06:05:34.845Z,38.04
2022-08-08T06:06:32.483Z,36.96
2022-08-08T06:07:31.123Z,37.58
2022-08-08T06:08:33.405Z,36.77
2022-08-08T06:10:00.360Z,38.32
2022-08-08T06:10:30.886Z,36.61
2022-08-08T06:11:30.891Z,34.94
2022-08-08T06:12:31.521Z,36.88
2022-08-08T06:13:35.711Z,38.33
2022-08-08T06:14:30.886Z,39.23
2022-08-08T06:15:50.061Z,39.69
2022-08-08T06:16:31.540Z,37.88
2022-08-08T06:17:32.122Z,39.03
2022-08-08T06:18:30.907Z,37.11
2022-08-08T06:19:35.260Z,35.82
2022-08-08T06:20:30.890Z,35.80
2022-08-08T06:21:48.550Z,36.94
2022-08-08T06:22:32.503Z,33.94
2022-08-08T06:23:52.768Z,34.55
2022-08-08T06:24:35.784Z,33.98
2022-08-08T06:25:33.403Z,35.67
2022-08-08T06:26:44.103Z,33.75
2022-08-08T06:27:31.022Z,34.22
2022-08-08T06:28:30.916Z,34.30
2022-08-08T06:29:56.923Z,31.82
2022-08-08T06:30:30.901Z,32.70
2022-08-08T06:31:52.164Z,31.20
2022-08-08T06:32:30.906Z,31.17
2022-08-08T06:33:36.964Z,32.52
2022-08-08T06:34:30.908Z,31.54
2022-08-08T06:36:06.001Z,29.27
2022-08-08T06:36:30.913Z,31.76
2022-08-08T06:37:37.087Z,30.92
2022-08-08T06:38:30.916Z,33.49
2022-08-08T06:39:33.282Z,33.74
2022-08-08T06:40:32.028Z,32.04
2022-08-08T06:41:33.199Z,31.23
2022-08-08T06:42:30.932Z,31.90
2022-08-08T06:43:34.433Z,31.00
2022-08-08T06:44:30.932Z,29.11
2022-08-08T06:45:30.935Z,29.59
2022-08-08T06:46:30.943Z,30.35
2022-08-08T06:47:31.566Z,27.47
2022-08-08T06:48:30.945Z,27.18
2022-08-08T06:49:55.273Z,28.55
2022-08-08T06:50:31.738Z,26.48
2022-08-08T06:51:46.710Z,27.18
2022-08-08T06:52:30.958Z,27.85
2022-08-08T06:53:39.951Z,26.38
2022-08-08T06:54:30.964Z,26.68
2022-08-08T06:55:30.967Z,26.48
2022-08-08T06:56:31.226Z,27.39
2022-08-08T06:57:54.157Z,29.57
2022-08-08T06:58:33.330Z,28.40
2022-08-08T06:59:34.508Z,29.07
2022-08-08T07:00:30.994Z,28.77
2022-08-08T07:02:27.350Z,27.50
2022-08-08T07:02:32.201Z,29.39
2022-08-08T07:04:35.317Z,30.28
2022-08-08T07:04:37.477Z,30.07
2022-08-08T07:05:40.151Z,29.55
2022-08-08T07:06:31.006Z,29.91
2022-08-08T07:07:32.998Z,28.44
2022-08-08T07:08:31.015Z,29.21
2022-08-08T07:09:45.174Z,26.65
2022-08-08T07:10:31.024Z,28.11
2022-08-08T07:11:51.321Z,27.70
2022-08-08T07:12:31.033Z,28.88
2022-08-08T07:13:31.036Z,27.87
2022-08-08T07:14:31.038Z,25.63
2022-08-08T07:15:41.186Z,24.66
2022-08-08T07:16:31.047Z,26.14
2022-08-08T07:17:31.786Z,26.82
2022-08-08T07:18:36.698Z,27.42
2022-08-08T07:19:31.058Z,26.16
2022-08-08T07:20:31.065Z,26.16
2022-08-08T07:21:32.059Z,28.22
2022-08-08T07:22:31.074Z,28.19
2022-08-08T07:24:01.405Z,25.93
2022-08-08T07:24:31.082Z,26.89
2022-08-08T07:25:31.988Z,24.53
2022-08-08T07:26:32.816Z,24.33
2022-08-08T07:27:47.299Z,25.04
2022-08-08T07:28:31.418Z,25.55
2022-08-08T07:29:59.912Z,25.56
2022-08-08T07:30:31.107Z,27.21
2022-08-08T07:31:31.110Z,25.54
2022-08-08T07:32:31.132Z,24.64
2022-08-08T07:33:37.938Z,24.73
2022-08-08T07:34:31.959Z,24.82
2022-08-08T07:35:31.248Z,25.15
2022-08-08T07:36:31.131Z,26.03
2022-08-08T07:37:42.646Z,26.11
2022-08-08T07:38:31.140Z,25.61
2022-08-08T07:39:35.456Z,24.04
2022-08-08T07:40:32.644Z,24.46
2022-08-08T07:41:58.652Z,26.32
2022-08-08T07:42:32.926Z,25.04
2022-08-08T07:43:37.390Z,24.73
2022-08-08T07:44:38.449Z,25.78
2022-08-08T07:45:34.620Z,23.72
2022-08-08T07:46:31.223Z,25.92
2022-08-08T07:47:38.897Z,25.27
2022-08-08T07:48:31.191Z,27.85
2022-08-08T07:49:31.193Z,27.42
2022-08-08T07:50:31.200Z,29.90
2022-08-08T07:51:44.913Z,30.31
2022-08-08T07:52:31.210Z,29.20
2022-08-08T07:54:01.618Z,28.67
2022-08-08T07:54:31.218Z,27.57
2022-08-08T07:55:36.441Z,28.02
2022-08-08T07:56:35.728Z,27.33
2022-08-08T07:57:36.212Z,26.33
2022-08-08T07:58:31.238Z,26.93
2022-08-08T07:59:37.609Z,26.46
2022-08-08T08:00:31.252Z,27.81
2022-08-08T08:02:35.781Z,27.42
2022-08-08T08:02:36.323Z,27.73
2022-08-08T08:03:41.243Z,25.05
2022-08-08T08:04:31.280Z,26.39
2022-08-08T08:05:33.636Z,25.02
2022-08-08T08:06:31.280Z,25.56
2022-08-08T08:07:32.359Z,26.65
2022-08-08T08:08:31.294Z,25.56
2022-08-08T08:09:33.094Z,25.73
2022-08-08T08:10:33.428Z,24.36
2022-08-08T08:11:34.050Z,24.85
2022-08-08T08:12:38.028Z,25.92
2022-08-08T08:14:06.288Z,25.70
2022-08-08T08:14:31.325Z,23.83
2022-08-08T08:15:31.931Z,24.50
2022-08-08T08:16:32.136Z,24.01
2022-08-08T08:17:44.948Z,24.74
2022-08-08T08:18:32.287Z,26.05
2022-08-08T08:19:45.019Z,26.07
2022-08-08T08:20:31.351Z,25.87
2022-08-08T08:21:44.256Z,25.27
2022-08-08T08:22:33.821Z,26.15
2022-08-08T08:23:41.030Z,25.35
2022-08-08T08:24:32.453Z,23.99
2022-08-08T08:25:43.663Z,26.45
2022-08-08T08:26:31.386Z,25.11
2022-08-08T08:27:31.425Z,27.08
2022-08-08T08:28:31.393Z,28.75
2022-08-08T08:29:31.398Z,28.99
2022-08-08T08:30:31.403Z,30.88
2022-08-08T08:31:41.526Z,30.29
2022-08-08T08:32:32.105Z,29.52
2022-08-08T08:33:31.413Z,31.23
2022-08-08T08:34:32.465Z,31.25
2022-08-08T08:36:19.240Z,32.65
2022-08-08T08:36:31.419Z,32.25
2022-08-08T08:37:31.589Z,31.76
2022-08-08T08:38:31.698Z,31.99
2022-08-08T08:39:39.115Z,34.91
2022-08-08T08:40:31.479Z,34.01
2022-08-08T08:41:31.440Z,34.31
2022-08-08T08:42:36.383Z,35.50
2022-08-08T08:43:31.440Z,34.71
2022-08-08T08:44:31.443Z,34.12
2022-08-08T08:45:31.445Z,34.63
2022-08-08T08:46:31.448Z,34.33
2022-08-08T08:47:43.711Z,34.63
2022-08-08T08:48:31.449Z,35.22
2022-08-08T08:49:34.002Z,34.94
2022-08-08T08:50:34.064Z,34.64
2022-08-08T08:51:31.460Z,32.76
2022-08-08T08:52:31.457Z,33.47
2022-08-08T08:53:58.865Z,34.86
2022-08-08T08:54:32.631Z,34.78
2022-08-08T08:55:31.464Z,36.07
2022-08-08T08:56:31.466Z,35.77
2022-08-08T08:57:31.467Z,35.87
2022-08-08T08:58:31.470Z,34.76
2022-08-08T08:59:58.902Z,34.96
2022-08-08T09:00:49.864Z,35.36
2022-08-08T09:01:31.992Z,34.27
2022-08-08T09:02:31.475Z,32.76
2022-08-08T09:03:46.565Z,31.13
2022-08-08T09:04:38.747Z,32.27
2022-08-08T09:05:53.719Z,29.55
2022-08-08T09:06:34.055Z,30.20
2022-08-08T09:07:39.648Z,29.00
2022-08-08T09:08:31.484Z,27.42
2022-08-08T09:09:39.749Z,28.23
2022-08-08T09:10:31.488Z,29.92
2022-08-08T09:11:33.344Z,29.36
2022-08-08T09:12:31.493Z,29.38
2022-08-08T09:13:31.492Z,30.40
2022-08-08T09:14:31.494Z,32.70
2022-08-08T09:15:37.318Z,32.00
2022-08-08T09:16:32.806Z,34.20
2022-08-08T09:17:52.336Z,33.12
2022-08-08T09:18:31.499Z,31.93
2022-08-08T09:21:59.580Z,33.65
2022-08-08T09:22:00.537Z,33.04
2022-08-08T09:22:01.474Z,33.73
2022-08-08T09:22:31.501Z,33.06
2022-08-08T09:23:33.646Z,32.87
2022-08-08T09:24:31.506Z,34.17
2022-08-08T09:25:47.459Z,33.17
2022-08-08T09:26:32.502Z,34.56
2022-08-08T09:27:56.410Z,34.27
2022-08-08T09:28:37.365Z,34.78
2022-08-08T09:29:31.514Z,34.48
2022-08-08T09:30:31.512Z,34.66
2022-08-08T09:31:42.189Z,34.06
2022-08-08T09:32:31.515Z,35.57
2022-08-08T09:34:06.327Z,33.98
2022-08-08T09:34:34.601Z,32.90
2022-08-08T09:35:32.329Z,34.59
2022-08-08T09:36:31.519Z,34.50
2022-08-08T09:37:58.828Z,34.69
2022-08-08T09:38:31.995Z,35.99
2022-08-08T09:39:32.765Z,34.40
2022-08-08T09:40:45.577Z,35.39
2022-08-08T09:41:33.548Z,35.99
2022-08-08T09:42:31.531Z,35.10
2022-08-08T09:44:04.626Z,34.20
2022-08-08T09:44:34.372Z,33.30
2022-08-08T09:46:01.833Z,34.30
2022-08-08T09:46:31.529Z,35.49
2022-08-08T09:48:09.898Z,35.10
2022-08-08T09:48:32.481Z,35.79
2022-08-08T09:49:43.003Z,37.06
2022-08-08T09:50:32.530Z,35.08
2022-08-08T09:51:41.451Z,34.98
2022-08-08T09:52:55.853Z,36.15
2022-08-08T09:53:53.029Z,35.06
2022-08-08T09:54:36.958Z,35.24
2022-08-08T09:56:03.423Z,34.84
2022-08-08T09:56:31.537Z,35.83
2022-08-08T09:57:34.899Z,35.42
2022-08-08T09:58:41.623Z,35.42
2022-08-08T10:00:01.175Z,33.64
2022-08-08T10:00:49.768Z,33.04
2022-08-08T10:01:59.548Z,32.93
2022-08-08T10:02:31.809Z,33.22
2022-08-08T10:03:33.889Z,33.12
2022-08-08T10:04:38.336Z,34.71
2022-08-08T10:05:31.608Z,32.02
2022-08-08T10:06:32.653Z,31.42
2022-08-08T10:07:31.557Z,31.92
2022-08-08T10:08:31.550Z,32.33
2022-08-08T10:09:31.550Z,31.84
2022-08-08T10:10:32.585Z,32.03
2022-08-08T10:12:28.026Z,31.93
2022-08-08T10:12:38.682Z,33.92
2022-08-08T10:13:35.667Z,33.12
2022-08-08T10:14:35.344Z,33.22
2022-08-08T10:15:31.554Z,31.63
2022-08-08T10:16:31.563Z,33.42
2022-08-08T10:18:03.940Z,31.74
2022-08-08T10:18:31.559Z,32.14
2022-08-08T10:19:34.339Z,32.63
2022-08-08T10:20:40.542Z,32.03
2022-08-08T10:21:33.034Z,34.22
2022-08-08T10:22:32.273Z,32.51
2022-08-08T10:23:41.228Z,31.74
2022-08-08T10:24:35.267Z,32.93
2022-08-08T10:25:35.979Z,32.53
2022-08-08T10:26:51.959Z,32.33
2022-08-08T10:27:34.302Z,32.14
2022-08-08T10:28:31.577Z,31.74
2022-08-08T10:29:44.085Z,33.62
2022-08-08T10:31:00.697Z,31.75
2022-08-08T10:31:47.197Z,33.83
2022-08-08T10:32:31.763Z,32.35
2022-08-08T10:33:38.526Z,32.64
2022-08-08T10:34:31.676Z,33.06
2022-08-08T10:36:09.755Z,33.85
2022-08-08T10:36:31.592Z,33.75
2022-08-08T10:37:31.585Z,32.17
2022-08-08T10:38:31.590Z,34.03
2022-08-08T10:39:53.805Z,33.55
2022-08-08T10:40:32.422Z,33.83
2022-08-08T10:41:35.922Z,33.24
2022-08-08T10:42:31.993Z,33.94
2022-08-08T10:43:32.163Z,32.94
2022-08-08T10:44:31.595Z,32.94
2022-08-08T10:45:38.924Z,32.15
2022-08-08T10:46:31.601Z,31.57
2022-08-08T10:47:43.555Z,32.99
2022-08-08T10:48:31.604Z,33.59
2022-08-08T10:50:02.361Z,34.36
2022-08-08T10:50:31.597Z,33.39
2022-08-08T10:51:47.237Z,33.98
2022-08-08T10:52:31.687Z,34.17
2022-08-08T10:53:56.349Z,34.96
2022-08-08T10:54:31.670Z,32.86
2022-08-08T10:55:41.055Z,32.05
2022-08-08T10:56:32.067Z,33.94
2022-08-08T10:57:45.017Z,32.53
2022-08-08T10:58:31.609Z,33.80
2022-08-08T10:59:40.096Z,31.82
2022-08-08T11:00:31.627Z,31.42
2022-08-08T11:01:33.468Z,32.93
2022-08-08T11:02:31.962Z,32.76
2022-08-08T11:03:36.795Z,33.59
2022-08-08T11:04:39.061Z,32.71
2022-08-08T11:05:39.031Z,33.81
2022-08-08T11:06:31.612Z,33.52
2022-08-08T11:08:31.394Z,33.32
2022-08-08T11:08:38.315Z,33.12
2022-08-08T11:09:32.109Z,34.81
2022-08-08T11:10:31.623Z,32.51
2022-08-08T11:12:04.870Z,33.30
2022-08-08T11:12:31.758Z,32.59
2022-08-08T11:13:31.712Z,33.98
2022-08-08T11:14:31.634Z,34.28
2022-08-08T11:15:31.627Z,32.09
2022-08-08T11:16:32.905Z,33.98
2022-08-08T11:18:00.241Z,34.28
2022-08-08T11:18:31.635Z,33.37
2022-08-08T11:19:31.724Z,34.64
2022-08-08T11:20:31.635Z,33.45
2022-08-08T11:21:34.953Z,32.66
2022-08-08T11:22:31.909Z,32.18
2022-08-08T11:23:32.904Z,32.26
2022-08-08T11:24:31.638Z,32.36
2022-08-08T11:25:52.577Z,32.06
2022-08-08T11:26:31.637Z,31.95
2022-08-08T11:27:37.372Z,34.03
2022-08-08T11:28:31.803Z,33.83
2022-08-08T11:29:50.887Z,33.65
2022-08-08T11:30:31.974Z,31.55
2022-08-08T11:31:43.597Z,33.04
2022-08-08T11:32:31.827Z,33.62
2022-08-08T11:33:52.994Z,34.01
2022-08-08T11:34:46.854Z,32.31
2022-08-08T11:35:36.102Z,31.52
2022-08-08T11:36:31.653Z,31.04
2022-08-08T11:38:35.828Z,32.94
2022-08-08T11:38:39.735Z,31.74
2022-08-08T11:39:36.786Z,32.03
2022-08-08T11:40:31.724Z,33.31
2022-08-08T11:41:32.386Z,33.98
2022-08-08T11:42:32.099Z,32.28
2022-08-08T11:43:39.526Z,30.99
2022-08-08T11:44:31.661Z,32.88
2022-08-08T11:45:43.637Z,30.37
2022-08-08T11:46:32.549Z,30.67
2022-08-08T11:47:39.808Z,30.87
2022-08-08T11:48:31.665Z,29.78
2022-08-08T11:49:31.670Z,30.77
2022-08-08T11:50:31.669Z,31.07
2022-08-08T11:51:40.073Z,28.69
2022-08-08T11:52:32.078Z,29.39
2022-08-08T11:53:31.676Z,29.20
2022-08-08T11:54:34.016Z,29.39
2022-08-08T11:55:31.679Z,30.29
2022-08-08T11:56:31.682Z,29.79
2022-08-08T11:57:34.942Z,29.61
2022-08-08T11:58:31.687Z,30.80
2022-08-08T11:59:58.851Z,31.38
2022-08-08T12:00:31.687Z,29.60
2022-08-08T12:01:31.687Z,31.68
2022-08-08T12:02:33.328Z,29.60
2022-08-08T12:03:31.799Z,30.88
2022-08-08T12:04:31.694Z,31.68
2022-08-08T12:05:31.693Z,30.29
2022-08-08T12:06:31.701Z,31.68
2022-08-08T12:07:31.965Z,29.69
2022-08-08T12:08:31.702Z,29.50
2022-08-08T12:09:56.975Z,29.58
2022-08-08T12:10:31.704Z,30.47
2022-08-08T12:11:31.705Z,29.77
2022-08-08T12:12:31.894Z,29.97
2022-08-08T12:13:38.352Z,29.28
2022-08-08T12:14:31.708Z,29.66
2022-08-08T12:15:42.954Z,30.26
2022-08-08T12:16:35.082Z,28.97
2022-08-08T12:17:31.714Z,30.55
2022-08-08T12:18:31.715Z,31.04
2022-08-08T12:19:50.887Z,27.28
2022-08-08T12:20:31.721Z,29.27
2022-08-08T12:22:00.066Z,28.48
2022-08-08T12:22:39.590Z,29.97
2022-08-08T12:23:42.826Z,29.68
2022-08-08T12:24:31.726Z,29.60
2022-08-08T12:25:31.727Z,30.68
2022-08-08T12:26:35.959Z,30.21
2022-08-08T12:27:43.396Z,31.21
2022-08-08T12:28:31.736Z,31.69
2022-08-08T12:29:40.224Z,29.61
2022-08-08T12:30:31.737Z,30.00
2022-08-08T12:31:38.997Z,30.30
2022-08-08T12:32:31.779Z,31.87
2022-08-08T12:33:37.822Z,29.79
2022-08-08T12:34:35.980Z,30.39
2022-08-08T12:35:31.746Z,29.50
2022-08-08T12:36:34.567Z,30.88
2022-08-08T12:37:40.873Z,30.21
2022-08-08T12:38:31.768Z,31.90
2022-08-08T12:39:56.484Z,31.41
2022-08-08T12:40:31.852Z,31.42
2022-08-08T12:41:34.819Z,30.93
2022-08-08T12:42:33.577Z,31.02
2022-08-08T12:43:32.931Z,31.13
2022-08-08T12:44:32.601Z,32.93
2022-08-08T12:45:57.809Z,31.72
2022-08-08T12:46:31.763Z,32.12
2022-08-08T12:47:58.585Z,32.14
2022-08-08T12:48:36.988Z,31.93
2022-08-08T12:49:43.849Z,30.84
2022-08-08T12:50:31.770Z,32.03
2022-08-08T12:51:39.916Z,30.55
2022-08-08T12:52:31.774Z,30.55
2022-08-08T12:53:36.517Z,31.72
2022-08-08T12:54:33.263Z,31.74
2022-08-08T12:55:50.310Z,31.84
2022-08-08T12:56:31.780Z,30.84
2022-08-08T12:57:31.779Z,30.74
2022-08-08T12:58:31.788Z,31.74
2022-08-08T12:59:44.752Z,31.84
2022-08-08T13:00:34.107Z,30.74
2022-08-08T13:01:35.165Z,31.63
2022-08-08T13:02:32.131Z,31.74
2022-08-08T13:03:33.494Z,32.23
2022-08-08T13:04:31.788Z,30.63
2022-08-08T13:06:03.115Z,31.52
2022-08-08T13:06:31.794Z,31.31
2022-08-08T13:08:03.517Z,31.81
2022-08-08T13:08:36.413Z,31.11
2022-08-08T13:09:33.010Z,31.21
2022-08-08T13:10:31.797Z,29.91
2022-08-08T13:12:26.778Z,30.50
2022-08-08T13:12:31.902Z,30.80
2022-08-08T13:13:34.791Z,30.30
2022-08-08T13:14:31.805Z,29.71
2022-08-08T13:15:31.805Z,30.80
2022-08-08T13:16:31.806Z,29.71
2022-08-08T13:18:08.129Z,31.68
2022-08-08T13:18:31.809Z,31.08
2022-08-08T13:19:41.110Z,30.18
2022-08-08T13:20:31.811Z,29.38
2022-08-08T13:21:48.621Z,29.68
2022-08-08T13:22:32.026Z,29.86
2022-08-08T13:23:36.837Z,29.19
2022-08-08T13:24:40.835Z,30.16
2022-08-08T13:25:31.819Z,28.20
2022-08-08T13:26:31.821Z,29.88
2022-08-08T13:27:35.477Z,28.20
2022-08-08T13:28:32.749Z,29.78
2022-08-08T13:29:37.870Z,29.88